sensor_id;sensor_type;location;lat;lon;timestamp;pressure;altitude;pressure_sealevel;temperature;humidity
72157;BME280;60035;52.122;5.406;2023-03-14T00:00:20;99039.59;;;9.23;100.00
72157;BME280;60035;52.122;5.406;2023-03-14T00:02:53;99045.59;;;9.22;100.00
72157;BME280;60035;52.122;5.406;2023-03-14T00:09:08;99050.81;;;9.20;100.00
72157;BME280;60035;52.122;5.406;2023-03-14T00:11:35;99046.50;;;9.21;100.00
72157;BME280;60035;52.122;5.406;2023-03-14T00:14:07;99050.88;;;9.19;100.00
72157;BME280;60035;52.122;5.406;2023-03-14T00:16:33;99038.03;;;9.20;100.00
72157;BME280;60035;52.122;5.406;2023-03-14T00:19:00;99045.69;;;9.20;100.00
72157;BME280;60035;52.122;5.406;2023-03-14T00:21:27;99039.59;;;9.23;100.00
72157;BME280;60035;52.122;5.406;2023-03-14T00:23:59;99037.47;;;9.31;100.00
72157;BME280;60035;52.122;5.406;2023-03-14T00:26:25;99035.75;;;9.31;100.00
72157;BME280;60035;52.122;5.406;2023-03-14T00:28:52;99032.03;;;9.37;100.00
72157;BME280;60035;52.122;5.406;2023-03-14T00:31:19;99038.78;;;9.38;100.00
72157;BME280;60035;52.122;5.406;2023-03-14T00:33:47;99034.25;;;9.43;100.00
72157;BME280;60035;52.122;5.406;2023-03-14T00:36:15;99024.84;;;9.44;100.00
72157;BME280;60035;52.122;5.406;2023-03-14T00:38:43;99045.03;;;9.48;100.00
72157;BME280;60035;52.122;5.406;2023-03-14T00:41:13;99041.34;;;9.54;100.00
72157;BME280;60035;52.122;5.406;2023-03-14T00:44:00;99046.06;;;9.46;100.00
72157;BME280;60035;52.122;5.406;2023-03-14T00:46:26;99047.09;;;9.42;100.00
72157;BME280;60035;52.122;5.406;2023-03-14T00:48:53;99050.50;;;9.42;100.00
72157;BME280;60035;52.122;5.406;2023-03-14T00:51:19;99042.81;;;9.42;100.00
72157;BME280;60035;52.122;5.406;2023-03-14T00:53:50;99048.84;;;9.41;100.00
72157;BME280;60035;52.122;5.406;2023-03-14T00:56:17;99037.72;;;9.42;100.00
72157;BME280;60035;52.122;5.406;2023-03-14T00:58:43;99047.94;;;9.42;100.00
72157;BME280;60035;52.122;5.406;2023-03-14T01:01:14;99041.16;;;9.41;100.00
72157;BME280;60035;52.122;5.406;2023-03-14T01:03:46;99051.56;;;9.38;100.00
72157;BME280;60035;52.122;5.406;2023-03-14T01:06:25;99058.47;;;9.36;100.00
72157;BME280;60035;52.122;5.406;2023-03-14T01:08:52;99050.72;;;9.38;100.00
72157;BME280;60035;52.122;5.406;2023-03-14T01:11:30;99068.78;;;9.34;100.00
72157;BME280;60035;52.122;5.406;2023-03-14T01:14:05;99063.00;;;9.31;100.00
72157;BME280;60035;52.122;5.406;2023-03-14T01:16:33;99058.16;;;9.26;100.00
72157;BME280;60035;52.122;5.406;2023-03-14T01:19:01;99068.59;;;9.22;100.00
72157;BME280;60035;52.122;5.406;2023-03-14T01:21:30;99072.31;;;9.16;100.00
72157;BME280;60035;52.122;5.406;2023-03-14T01:24:04;99077.72;;;9.10;100.00
72157;BME280;60035;52.122;5.406;2023-03-14T01:26:33;99079.69;;;9.05;100.00
72157;BME280;60035;52.122;5.406;2023-03-14T01:29:01;99085.19;;;8.97;100.00
72157;BME280;60035;52.122;5.406;2023-03-14T01:31:28;99078.75;;;8.90;100.00
72157;BME280;60035;52.122;5.406;2023-03-14T01:33:56;99075.59;;;8.84;100.00
72157;BME280;60035;52.122;5.406;2023-03-14T01:36:22;99069.00;;;8.80;100.00
72157;BME280;60035;52.122;5.406;2023-03-14T01:38:49;99079.38;;;8.77;100.00
72157;BME280;60035;52.122;5.406;2023-03-14T01:41:19;99069.25;;;8.76;100.00
72157;BME280;60035;52.122;5.406;2023-03-14T01:43:51;99068.41;;;8.75;100.00
72157;BME280;60035;52.122;5.406;2023-03-14T01:52:02;99055.81;;;8.72;100.00
72157;BME280;60035;52.122;5.406;2023-03-14T01:58:01;99038.09;;;8.69;100.00
72157;BME280;60035;52.122;5.406;2023-03-14T02:00:30;99028.81;;;8.68;100.00
72157;BME280;60035;52.122;5.406;2023-03-14T02:02:59;99029.72;;;8.67;100.00
72157;BME280;60035;52.122;5.406;2023-03-14T02:05:39;99029.63;;;8.69;100.00
72157;BME280;60035;52.122;5.406;2023-03-14T02:08:10;99038.19;;;8.67;100.00
72157;BME280;60035;52.122;5.406;2023-03-14T02:10:41;99036.38;;;8.70;100.00
72157;BME280;60035;52.122;5.406;2023-03-14T02:13:10;99037.13;;;8.72;100.00
72157;BME280;60035;52.122;5.406;2023-03-14T02:15:37;99037.06;;;8.73;100.00
72157;BME280;60035;52.122;5.406;2023-03-14T02:18:05;99031.97;;;8.73;100.00
72157;BME280;60035;52.122;5.406;2023-03-14T02:23:08;99020.09;;;8.72;100.00
72157;BME280;60035;52.122;5.406;2023-03-14T02:26:10;99020.09;;;8.72;100.00
72157;BME280;60035;52.122;5.406;2023-03-14T02:28:39;99026.84;;;8.73;100.00
72157;BME280;60035;52.122;5.406;2023-03-14T02:31:05;99030.31;;;8.72;100.00
72157;BME280;60035;52.122;5.406;2023-03-14T02:33:36;99027.75;;;8.72;100.00
72157;BME280;60035;52.122;5.406;2023-03-14T02:36:10;99028.56;;;8.73;100.00
72157;BME280;60035;52.122;5.406;2023-03-14T02:38:46;99022.66;;;8.72;100.00
72157;BME280;60035;52.122;5.406;2023-03-14T02:41:14;99025.19;;;8.72;100.00
72157;BME280;60035;52.122;5.406;2023-03-14T02:43:47;99025.28;;;8.71;100.00
72157;BME280;60035;52.122;5.406;2023-03-14T02:46:16;99019.25;;;8.72;100.00
72157;BME280;60035;52.122;5.406;2023-03-14T02:48:57;99011.69;;;8.70;100.00
72157;BME280;60035;52.122;5.406;2023-03-14T02:51:27;99008.25;;;8.71;100.00
72157;BME280;60035;52.122;5.406;2023-03-14T02:56:59;99000.59;;;8.71;100.00
72157;BME280;60035;52.122;5.406;2023-03-14T02:59:26;98997.22;;;8.71;100.00
72157;BME280;60035;52.122;5.406;2023-03-14T03:01:53;98998.94;;;8.70;100.00
72157;BME280;60035;52.122;5.406;2023-03-14T03:04:34;98999.81;;;8.69;100.00
72157;BME280;60035;52.122;5.406;2023-03-14T03:07:00;98995.56;;;8.70;100.00
72157;BME280;60035;52.122;5.406;2023-03-14T03:09:27;98998.94;;;8.70;100.00
72157;BME280;60035;52.122;5.406;2023-03-14T03:11:53;98989.56;;;8.71;100.00
72157;BME280;60035;52.122;5.406;2023-03-14T03:14:37;98985.34;;;8.70;100.00
72157;BME280;60035;52.122;5.406;2023-03-14T03:17:04;98993.91;;;8.69;100.00
72157;BME280;60035;52.122;5.406;2023-03-14T03:19:32;98995.66;;;8.68;100.00
72157;BME280;60035;52.122;5.406;2023-03-14T03:21:59;98995.56;;;8.70;100.00
72157;BME280;60035;52.122;5.406;2023-03-14T03:24:31;98986.16;;;8.70;100.00
72157;BME280;60035;52.122;5.406;2023-03-14T03:26:57;98975.88;;;8.72;100.00
72157;BME280;60035;52.122;5.406;2023-03-14T03:29:24;98980.97;;;8.72;100.00
72157;BME280;60035;52.122;5.406;2023-03-14T03:31:51;98985.28;;;8.71;100.00
72157;BME280;60035;52.122;5.406;2023-03-14T03:34:49;98990.38;;;8.71;100.00
72157;BME280;60035;52.122;5.406;2023-03-14T03:37:16;98979.19;;;8.74;100.00
72157;BME280;60035;52.122;5.406;2023-03-14T03:39:42;98974.84;;;8.76;100.00
72157;BME280;60035;52.122;5.406;2023-03-14T03:42:09;98977.31;;;8.77;100.00
72157;BME280;60035;52.122;5.406;2023-03-14T03:44:39;98973.09;;;8.76;100.00
72157;BME280;60035;52.122;5.406;2023-03-14T03:47:06;98963.78;;;8.75;100.00
72157;BME280;60035;52.122;5.406;2023-03-14T03:49:32;98955.31;;;8.75;100.00
72157;BME280;60035;52.122;5.406;2023-03-14T03:51:59;98961.16;;;8.77;100.00
72157;BME280;60035;52.122;5.406;2023-03-14T03:54:33;98960.16;;;8.79;100.00
72157;BME280;60035;52.122;5.406;2023-03-14T03:56:59;98972.03;;;8.80;100.00
72157;BME280;60035;52.122;5.406;2023-03-14T03:59:26;98966.03;;;8.81;100.00
72157;BME280;60035;52.122;5.406;2023-03-14T04:01:53;98970.28;;;8.81;100.00
72157;BME280;60035;52.122;5.406;2023-03-14T04:04:55;98968.50;;;8.83;100.00
72157;BME280;60035;52.122;5.406;2023-03-14T04:07:21;98967.44;;;8.87;100.00
72157;BME280;60035;52.122;5.406;2023-03-14T04:09:48;98970.72;;;8.89;100.00
72157;BME280;60035;52.122;5.406;2023-03-14T04:12:15;98969.81;;;8.90;100.00
72157;BME280;60035;52.122;5.406;2023-03-14T04:14:45;98969.00;;;8.90;100.00
72157;BME280;60035;52.122;5.406;2023-03-14T04:17:11;98977.41;;;8.92;100.00
72157;BME280;60035;52.122;5.406;2023-03-14T04:19:38;98978.97;;;8.94;100.00
72157;BME280;60035;52.122;5.406;2023-03-14T04:22:04;98975.50;;;8.95;100.00
72157;BME280;60035;52.122;5.406;2023-03-14T04:24:43;98980.47;;;8.98;100.00
72157;BME280;60035;52.122;5.406;2023-03-14T04:27:10;98975.19;;;9.02;100.00
72157;BME280;60035;52.122;5.406;2023-03-14T04:29:37;98981.03;;;9.04;100.00
72157;BME280;60035;52.122;5.406;2023-03-14T04:32:03;98980.97;;;9.05;100.00
72157;BME280;60035;52.122;5.406;2023-03-14T04:34:30;98969.84;;;9.06;100.00
72157;BME280;60035;52.122;5.406;2023-03-14T04:36:57;98967.13;;;9.09;100.00
72157;BME280;60035;52.122;5.406;2023-03-14T04:39:23;98962.72;;;9.11;100.00
72157;BME280;60035;52.122;5.406;2023-03-14T04:41:50;98955.81;;;9.13;100.00
72157;BME280;60035;52.122;5.406;2023-03-14T04:47:57;98951.53;;;9.14;100.00
72157;BME280;60035;52.122;5.406;2023-03-14T04:50:24;98954.03;;;9.15;100.00
72157;BME280;60035;52.122;5.406;2023-03-14T04:52:50;98941.97;;;9.17;100.00
72157;BME280;60035;52.122;5.406;2023-03-14T04:55:53;98950.63;;;9.15;100.00
72157;BME280;60035;52.122;5.406;2023-03-14T04:58:20;98948.91;;;9.15;100.00
72157;BME280;60035;52.122;5.406;2023-03-14T05:00:47;98943.81;;;9.15;100.00
72157;BME280;60035;52.122;5.406;2023-03-14T05:03:15;98950.41;;;9.20;100.00
72157;BME280;60035;52.122;5.406;2023-03-14T05:05:41;98952.03;;;9.21;100.00
72157;BME280;60035;52.122;5.406;2023-03-14T05:08:08;98940.91;;;9.22;100.00
72157;BME280;60035;52.122;5.406;2023-03-14T05:10:35;98943.63;;;9.19;100.00
72157;BME280;60035;52.122;5.406;2023-03-14T05:13:01;98947.28;;;9.14;100.00
72157;BME280;60035;52.122;5.406;2023-03-14T05:18:36;98951.97;;;9.06;100.00
72157;BME280;60035;52.122;5.406;2023-03-14T05:21:03;98944.63;;;9.00;100.00
72157;BME280;60035;52.122;5.406;2023-03-14T05:23:30;98937.97;;;8.97;100.00
72157;BME280;60035;52.122;5.406;2023-03-14T05:25:57;98929.81;;;8.91;100.00
72157;BME280;60035;52.122;5.406;2023-03-14T05:28:24;98934.16;;;8.89;100.00
72157;BME280;60035;52.122;5.406;2023-03-14T05:30:50;98924.94;;;8.86;100.00
72157;BME280;60035;52.122;5.406;2023-03-14T05:33:17;98925.03;;;8.84;100.00
72157;BME280;60035;52.122;5.406;2023-03-14T05:35:43;98940.50;;;8.81;100.00
72157;BME280;60035;52.122;5.406;2023-03-14T05:38:10;98940.66;;;8.78;100.00
72157;BME280;60035;52.122;5.406;2023-03-14T05:40:37;98933.09;;;8.77;100.00
72157;BME280;60035;52.122;5.406;2023-03-14T05:43:03;98935.63;;;8.77;100.00
72157;BME280;60035;52.122;5.406;2023-03-14T05:48:49;98938.53;;;8.71;100.00
72157;BME280;60035;52.122;5.406;2023-03-14T05:51:15;98935.22;;;8.69;100.00
72157;BME280;60035;52.122;5.406;2023-03-14T05:54:09;98939.50;;;8.68;100.00
72157;BME280;60035;52.122;5.406;2023-03-14T05:56:36;98937.84;;;8.67;100.00
72157;BME280;60035;52.122;5.406;2023-03-14T05:59:02;98937.94;;;8.65;100.00
72157;BME280;60035;52.122;5.406;2023-03-14T06:01:29;98934.56;;;8.65;100.00
72157;BME280;60035;52.122;5.406;2023-03-14T06:03:56;98932.00;;;8.65;100.00
72157;BME280;60035;52.122;5.406;2023-03-14T06:06:23;98926.91;;;8.65;100.00
72157;BME280;60035;52.122;5.406;2023-03-14T06:08:50;98923.44;;;8.66;100.00
72157;BME280;60035;52.122;5.406;2023-03-14T06:11:17;98922.63;;;8.65;100.00
72157;BME280;60035;52.122;5.406;2023-03-14T06:13:43;98926.00;;;8.66;100.00
72157;BME280;60035;52.122;5.406;2023-03-14T06:16:10;98932.84;;;8.65;100.00
72157;BME280;60035;52.122;5.406;2023-03-14T06:18:36;98940.31;;;8.69;100.00
72157;BME280;60035;52.122;5.406;2023-03-14T06:21:03;98932.66;;;8.69;100.00
72157;BME280;60035;52.122;5.406;2023-03-14T06:23:30;98935.91;;;8.72;100.00
72157;BME280;60035;52.122;5.406;2023-03-14T06:25:58;98939.16;;;8.74;100.00
72157;BME280;60035;52.122;5.406;2023-03-14T06:28:24;98935.81;;;8.74;100.00
72157;BME280;60035;52.122;5.406;2023-03-14T06:30:51;98942.66;;;8.73;100.00
72157;BME280;60035;52.122;5.406;2023-03-14T06:33:18;98949.38;;;8.74;100.00
72157;BME280;60035;52.122;5.406;2023-03-14T06:35:45;98953.66;;;8.74;100.00
72157;BME280;60035;52.122;5.406;2023-03-14T06:38:11;98969.06;;;8.72;100.00
72157;BME280;60035;52.122;5.406;2023-03-14T06:40:38;99004.03;;;8.70;100.00
72157;BME280;60035;52.122;5.406;2023-03-14T06:43:04;99004.19;;;8.67;100.00
72157;BME280;60035;52.122;5.406;2023-03-14T06:45:32;98995.88;;;8.63;100.00
72157;BME280;60035;52.122;5.406;2023-03-14T06:47:58;99028.69;;;8.54;100.00
72157;BME280;60035;52.122;5.406;2023-03-14T06:50:25;99044.81;;;8.37;100.00
72157;BME280;60035;52.122;5.406;2023-03-14T06:52:53;99051.69;;;8.17;100.00
72157;BME280;60035;52.122;5.406;2023-03-14T06:55:20;99065.13;;;8.03;100.00
72157;BME280;60035;52.122;5.406;2023-03-14T06:57:48;99069.97;;;7.90;100.00
72157;BME280;60035;52.122;5.406;2023-03-14T07:00:15;99085.69;;;7.81;100.00
72157;BME280;60035;52.122;5.406;2023-03-14T07:02:41;99084.25;;;7.75;100.00
72157;BME280;60035;52.122;5.406;2023-03-14T07:05:09;99092.16;;;7.69;100.00
72157;BME280;60035;52.122;5.406;2023-03-14T07:07:38;99091.47;;;7.65;100.00
72157;BME280;60035;52.122;5.406;2023-03-14T07:10:05;99102.78;;;7.60;100.00
72157;BME280;60035;52.122;5.406;2023-03-14T07:12:35;99105.41;;;7.58;100.00
72157;BME280;60035;52.122;5.406;2023-03-14T07:15:02;99119.03;;;7.57;100.00
72157;BME280;60035;52.122;5.406;2023-03-14T07:17:43;99129.28;;;7.56;100.00
72157;BME280;60035;52.122;5.406;2023-03-14T07:20:10;99127.78;;;7.52;100.00
72157;BME280;60035;52.122;5.406;2023-03-14T07:22:37;99142.44;;;7.46;100.00
72157;BME280;60035;52.122;5.406;2023-03-14T07:25:04;99159.56;;;7.43;100.00
72157;BME280;60035;52.122;5.406;2023-03-14T07:27:31;99169.13;;;7.38;100.00
72157;BME280;60035;52.122;5.406;2023-03-14T07:29:57;99182.16;;;7.30;100.00
72157;BME280;60035;52.122;5.406;2023-03-14T07:32:24;99188.28;;;7.26;100.00
72157;BME280;60035;52.122;5.406;2023-03-14T07:34:51;99196.94;;;7.22;100.00
72157;BME280;60035;52.122;5.406;2023-03-14T07:37:18;99211.59;;;7.16;100.00
72157;BME280;60035;52.122;5.406;2023-03-14T07:39:44;99215.94;;;7.14;100.00
72157;BME280;60035;52.122;5.406;2023-03-14T07:42:11;99234.63;;;7.13;100.00
72157;BME280;60035;52.122;5.406;2023-03-14T07:44:37;99239.00;;;7.10;100.00
72157;BME280;60035;52.122;5.406;2023-03-14T07:47:04;99246.78;;;7.07;100.00
72157;BME280;60035;52.122;5.406;2023-03-14T07:49:31;99262.88;;;7.07;100.00
72157;BME280;60035;52.122;5.406;2023-03-14T07:52:04;99276.53;;;7.05;100.00
72157;BME280;60035;52.122;5.406;2023-03-14T07:54:30;99282.66;;;7.00;100.00
72157;BME280;60035;52.122;5.406;2023-03-14T07:56:58;99295.50;;;6.97;100.00
72157;BME280;60035;52.122;5.406;2023-03-14T07:59:27;99304.84;;;6.97;100.00
72157;BME280;60035;52.122;5.406;2023-03-14T08:01:54;99309.19;;;6.95;100.00
72157;BME280;60035;52.122;5.406;2023-03-14T08:04:21;99334.72;;;6.92;100.00
72157;BME280;60035;52.122;5.406;2023-03-14T08:06:47;99346.88;;;6.63;100.00
72157;BME280;60035;52.122;5.406;2023-03-14T08:09:14;99372.19;;;6.42;100.00
72157;BME280;60035;52.122;5.406;2023-03-14T08:11:41;99387.91;;;6.28;100.00
72157;BME280;60035;52.122;5.406;2023-03-14T08:14:08;99392.78;;;6.11;100.00
72157;BME280;60035;52.122;5.406;2023-03-14T08:16:35;99408.53;;;5.95;100.00
72157;BME280;60035;52.122;5.406;2023-03-14T08:19:02;99413.13;;;5.84;100.00
72157;BME280;60035;52.122;5.406;2023-03-14T08:21:28;99432.94;;;5.73;100.00
72157;BME280;60035;52.122;5.406;2023-03-14T08:23:55;99436.53;;;5.67;100.00
72157;BME280;60035;52.122;5.406;2023-03-14T08:26:22;99441.78;;;5.61;100.00
72157;BME280;60035;52.122;5.406;2023-03-14T08:28:49;99457.94;;;5.60;100.00
72157;BME280;60035;52.122;5.406;2023-03-14T08:31:15;99463.81;;;5.60;100.00
72157;BME280;60035;52.122;5.406;2023-03-14T08:33:42;99483.34;;;5.58;100.00
72157;BME280;60035;52.122;5.406;2023-03-14T08:36:09;99486.84;;;5.54;100.00
72157;BME280;60035;52.122;5.406;2023-03-14T08:38:36;99500.56;;;5.48;100.00
72157;BME280;60035;52.122;5.406;2023-03-14T08:41:03;99507.44;;;5.45;100.00
72157;BME280;60035;52.122;5.406;2023-03-14T08:43:30;99526.00;;;5.47;100.00
72157;BME280;60035;52.122;5.406;2023-03-14T08:45:58;99534.38;;;5.50;100.00
72157;BME280;60035;52.122;5.406;2023-03-14T08:48:25;99556.06;;;5.61;100.00
72157;BME280;60035;52.122;5.406;2023-03-14T08:50:52;99550.81;;;5.67;100.00
72157;BME280;60035;52.122;5.406;2023-03-14T08:53:19;99562.56;;;5.70;100.00
72157;BME280;60035;52.122;5.406;2023-03-14T08:55:47;99575.06;;;5.77;100.00
72157;BME280;60035;52.122;5.406;2023-03-14T08:58:13;99580.09;;;5.79;100.00
72157;BME280;60035;52.122;5.406;2023-03-14T09:00:40;99601.03;;;5.86;100.00
72157;BME280;60035;52.122;5.406;2023-03-14T09:03:06;99616.97;;;5.91;100.00
72157;BME280;60035;52.122;5.406;2023-03-14T09:05:34;99619.44;;;5.94;100.00
72157;BME280;60035;52.122;5.406;2023-03-14T09:08:01;99635.41;;;5.99;100.00
72157;BME280;60035;52.122;5.406;2023-03-14T09:10:28;99644.00;;;5.93;100.00
72157;BME280;60035;52.122;5.406;2023-03-14T09:12:54;99645.69;;;5.94;100.00
72157;BME280;60035;52.122;5.406;2023-03-14T09:15:21;99663.41;;;5.96;100.00
72157;BME280;60035;52.122;5.406;2023-03-14T09:17:47;99676.00;;;6.00;100.00
72157;BME280;60035;52.122;5.406;2023-03-14T09:20:14;99674.31;;;6.01;100.00
72157;BME280;60035;52.122;5.406;2023-03-14T09:22:41;99681.19;;;5.96;100.00
72157;BME280;60035;52.122;5.406;2023-03-14T09:25:08;99689.78;;;5.92;100.00
72157;BME280;60035;52.122;5.406;2023-03-14T09:27:36;99715.41;;;5.84;100.00
72157;BME280;60035;52.122;5.406;2023-03-14T09:30:03;99722.31;;;5.79;100.00
72157;BME280;60035;52.122;5.406;2023-03-14T09:32:30;99726.69;;;5.74;100.00
72157;BME280;60035;52.122;5.406;2023-03-14T09:34:59;99730.97;;;5.73;100.00
72157;BME280;60035;52.122;5.406;2023-03-14T09:37:26;99740.19;;;5.76;100.00
72157;BME280;60035;52.122;5.406;2023-03-14T09:39:53;99757.69;;;5.87;100.00
72157;BME280;60035;52.122;5.406;2023-03-14T09:42:23;99761.69;;;5.94;100.00
72157;BME280;60035;52.122;5.406;2023-03-14T09:44:58;99770.06;;;5.99;100.00
72157;BME280;60035;52.122;5.406;2023-03-14T09:47:26;99779.09;;;6.09;100.00
72157;BME280;60035;52.122;5.406;2023-03-14T09:49:53;99787.34;;;6.17;100.00
72157;BME280;60035;52.122;5.406;2023-03-14T09:52:32;99804.16;;;6.22;100.00
72157;BME280;60035;52.122;5.406;2023-03-14T09:55:06;99809.22;;;6.23;100.00
72157;BME280;60035;52.122;5.406;2023-03-14T09:57:36;99811.63;;;6.28;100.00
72157;BME280;60035;52.122;5.406;2023-03-14T10:00:10;99830.72;;;6.41;100.00
72157;BME280;60035;52.122;5.406;2023-03-14T10:02:43;99833.09;;;6.47;100.00
72157;BME280;60035;52.122;5.406;2023-03-14T10:05:24;99837.22;;;6.52;100.00
72157;BME280;60035;52.122;5.406;2023-03-14T10:07:51;99828.56;;;6.57;100.00
72157;BME280;60035;52.122;5.406;2023-03-14T10:10:23;99847.94;;;6.61;100.00
72157;BME280;60035;52.122;5.406;2023-03-14T10:13:15;99862.34;;;6.62;100.00
72157;BME280;60035;52.122;5.406;2023-03-14T10:15:47;99879.31;;;6.62;100.00
72157;BME280;60035;52.122;5.406;2023-03-14T10:18:14;99893.13;;;6.53;100.00
72157;BME280;60035;52.122;5.406;2023-03-14T10:20:46;99911.13;;;6.45;100.00
72157;BME280;60035;52.122;5.406;2023-03-14T10:25:46;99931.25;;;6.22;100.00
72157;BME280;60035;52.122;5.406;2023-03-14T10:28:27;99947.50;;;6.16;100.00
72157;BME280;60035;52.122;5.406;2023-03-14T10:30:56;99943.00;;;6.27;100.00
72157;BME280;60035;52.122;5.406;2023-03-14T10:36:18;99961.50;;;6.32;100.00
72157;BME280;60035;52.122;5.406;2023-03-14T10:38:45;99979.97;;;6.39;100.00
72157;BME280;60035;52.122;5.406;2023-03-14T10:41:18;99978.16;;;6.43;100.00
72157;BME280;60035;52.122;5.406;2023-03-14T10:43:50;99988.31;;;6.44;100.00
72157;BME280;60035;52.122;5.406;2023-03-14T10:46:18;100007.22;;;6.34;100.00
72157;BME280;60035;52.122;5.406;2023-03-14T10:48:46;100021.56;;;6.37;100.00
72157;BME280;60035;52.122;5.406;2023-03-14T10:53:47;100048.19;;;6.22;100.00
72157;BME280;60035;52.122;5.406;2023-03-14T10:56:19;100058.03;;;6.01;100.00
72157;BME280;60035;52.122;5.406;2023-03-14T10:58:48;100080.16;;;5.94;100.00
72157;BME280;60035;52.122;5.406;2023-03-14T11:01:39;100081.94;;;5.91;100.00
72157;BME280;60035;52.122;5.406;2023-03-14T11:06:57;100099.84;;;5.86;100.00
72157;BME280;60035;52.122;5.406;2023-03-14T11:12:13;100112.34;;;5.95;97.79
72157;BME280;60035;52.122;5.406;2023-03-14T11:14:51;100118.88;;;6.06;96.90
72157;BME280;60035;52.122;5.406;2023-03-14T11:17:29;100128.88;;;6.13;94.88
72157;BME280;60035;52.122;5.406;2023-03-14T11:20:09;100135.59;;;6.16;94.38
72157;BME280;60035;52.122;5.406;2023-03-14T11:22:50;100138.91;;;6.56;93.99
72157;BME280;60035;52.122;5.406;2023-03-14T11:25:31;100165.22;;;6.91;93.31
72157;BME280;60035;52.122;5.406;2023-03-14T11:28:17;100160.31;;;7.16;89.13
72157;BME280;60035;52.122;5.406;2023-03-14T11:30:51;100185.44;;;7.28;87.14
72157;BME280;60035;52.122;5.406;2023-03-14T11:33:31;100186.28;;;7.29;84.08
72157;BME280;60035;52.122;5.406;2023-03-14T11:36:08;100181.47;;;7.18;82.78
72157;BME280;60035;52.122;5.406;2023-03-14T11:38:48;100192.75;;;7.08;81.60
72157;BME280;60035;52.122;5.406;2023-03-14T11:41:53;100206.75;;;7.26;78.22
72157;BME280;60035;52.122;5.406;2023-03-14T11:44:25;100209.75;;;7.40;76.40
72157;BME280;60035;52.122;5.406;2023-03-14T11:47:12;100218.84;;;7.50;77.58
72157;BME280;60035;52.122;5.406;2023-03-14T11:49:58;100239.78;;;7.60;75.33
72157;BME280;60035;52.122;5.406;2023-03-14T11:53:11;100227.00;;;7.62;74.00
72157;BME280;60035;52.122;5.406;2023-03-14T11:57:48;100243.19;;;7.61;72.71
72157;BME280;60035;52.122;5.406;2023-03-14T12:00:21;100239.94;;;7.56;73.42
72157;BME280;60035;52.122;5.406;2023-03-14T12:08:38;100262.44;;;7.71;66.94
72157;BME280;60035;52.122;5.406;2023-03-14T12:11:12;100267.63;;;7.68;67.71
72157;BME280;60035;52.122;5.406;2023-03-14T12:13:50;100276.59;;;7.81;67.45
72157;BME280;60035;52.122;5.406;2023-03-14T12:18:53;100287.56;;;8.45;68.17
72157;BME280;60035;52.122;5.406;2023-03-14T12:21:20;100288.41;;;8.47;66.02
72157;BME280;60035;52.122;5.406;2023-03-14T12:23:51;100298.59;;;8.47;63.36
72157;BME280;60035;52.122;5.406;2023-03-14T12:26:24;100298.69;;;8.42;64.39
72157;BME280;60035;52.122;5.406;2023-03-14T12:31:37;100320.53;;;8.53;62.88
72157;BME280;60035;52.122;5.406;2023-03-14T12:42:02;100324.28;;;8.69;60.78
72157;BME280;60035;52.122;5.406;2023-03-14T12:49:48;100341.59;;;8.88;57.29
72157;BME280;60035;52.122;5.406;2023-03-14T12:52:32;100344.16;;;8.88;56.86
72157;BME280;60035;52.122;5.406;2023-03-14T12:55:12;100343.28;;;8.89;57.38
72157;BME280;60035;52.122;5.406;2023-03-14T13:00:37;100373.50;;;8.44;54.67
72157;BME280;60035;52.122;5.406;2023-03-14T13:05:57;100384.56;;;8.12;54.75
72157;BME280;60035;52.122;5.406;2023-03-14T13:08:41;100397.91;;;8.22;54.52
72157;BME280;60035;52.122;5.406;2023-03-14T13:11:15;100390.88;;;8.30;53.60
72157;BME280;60035;52.122;5.406;2023-03-14T13:13:47;100410.19;;;8.40;55.88
72157;BME280;60035;52.122;5.406;2023-03-14T13:16:17;100417.69;;;8.76;54.79
72157;BME280;60035;52.122;5.406;2023-03-14T13:18:47;100404.75;;;8.82;51.87
72157;BME280;60035;52.122;5.406;2023-03-14T13:21:19;100417.66;;;8.78;52.02
72157;BME280;60035;52.122;5.406;2023-03-14T13:24:17;100423.31;;;8.88;51.06
72157;BME280;60035;52.122;5.406;2023-03-14T13:26:46;100424.47;;;8.77;50.88
72157;BME280;60035;52.122;5.406;2023-03-14T13:31:46;100461.56;;;8.59;49.50
72157;BME280;60035;52.122;5.406;2023-03-14T13:34:14;100464.16;;;8.58;51.14
72157;BME280;60035;52.122;5.406;2023-03-14T13:36:41;100474.22;;;8.64;50.46
72157;BME280;60035;52.122;5.406;2023-03-14T13:39:17;100466.16;;;8.46;51.24
72157;BME280;60035;52.122;5.406;2023-03-14T13:41:46;100475.13;;;8.27;51.47
72157;BME280;60035;52.122;5.406;2023-03-14T13:44:34;100490.91;;;8.41;53.31
72157;BME280;60035;52.122;5.406;2023-03-14T13:47:03;100481.22;;;8.56;51.53
72157;BME280;60035;52.122;5.406;2023-03-14T13:49:32;100494.81;;;8.88;53.12
72157;BME280;60035;52.122;5.406;2023-03-14T13:52:03;100499.75;;;8.94;52.22
72157;BME280;60035;52.122;5.406;2023-03-14T13:54:31;100509.63;;;9.06;51.46
72157;BME280;60035;52.122;5.406;2023-03-14T13:57:02;100510.41;;;9.08;51.72
72157;BME280;60035;52.122;5.406;2023-03-14T13:59:31;100519.50;;;8.87;52.22
72157;BME280;60035;52.122;5.406;2023-03-14T14:02:04;100521.75;;;8.66;53.23
72157;BME280;60035;52.122;5.406;2023-03-14T14:04:33;100530.59;;;8.86;54.78
72157;BME280;60035;52.122;5.406;2023-03-14T14:07:10;100532.88;;;9.27;54.62
72157;BME280;60035;52.122;5.406;2023-03-14T14:09:41;100538.72;;;9.30;53.99
72157;BME280;60035;52.122;5.406;2023-03-14T14:12:16;100557.03;;;8.83;55.83
72157;BME280;60035;52.122;5.406;2023-03-14T14:15:04;100569.44;;;8.97;54.22
72157;BME280;60035;52.122;5.406;2023-03-14T14:17:37;100572.38;;;9.15;53.00
72157;BME280;60035;52.122;5.406;2023-03-14T14:20:07;100579.00;;;9.21;52.30
72157;BME280;60035;52.122;5.406;2023-03-14T14:22:35;100584.00;;;9.25;51.83
72157;BME280;60035;52.122;5.406;2023-03-14T14:25:02;100595.03;;;8.96;50.17
72157;BME280;60035;52.122;5.406;2023-03-14T14:27:35;100598.13;;;8.76;51.94
72157;BME280;60035;52.122;5.406;2023-03-14T14:30:28;100602.31;;;8.77;52.63
72157;BME280;60035;52.122;5.406;2023-03-14T14:33:11;100614.44;;;8.69;53.16